This is the latest recevied weather packets stored in our database for station/object OK9CPU-9. If no packets are shown the sender has not sent any weather packets the latest 10 day(s).
| Time | Temp. | Humidity | Pressure | Rain* | Wind** | Luminosity | Snow |
|---|---|---|---|---|---|---|---|
| 1788509805 | 40.56° C | 16% | 1018.2 hPa | - | - | - | - |
| 1788505824 | 32.22° C | 18% | 1018.7 hPa | - | - | - | - |
| 1788380925 | 19.44° C | 33% | 1019.9 hPa | - | - | - | - |
| 1788378935 | 20° C | 34% | 1019.5 hPa | - | - | - | - |
| 1788377940 | 20.56° C | 34% | 1019.5 hPa | - | - | - | - |
| 1788372965 | 23.33° C | 33% | 1019 hPa | - | - | - | - |
| 1788370975 | 24.44° C | 32% | 1018.8 hPa | - | - | - | - |
| 1788369980 | 25.56° C | 32% | 1018.7 hPa | - | - | - | - |
| 1788368985 | 26.67° C | 32% | 1018.6 hPa | - | - | - | - |
| 1788367990 | 27.78° C | 30% | 1018.6 hPa | - | - | - | - |
| 1788338138 | 34.44° C | 20% | 1022 hPa | - | - | - | - |
| 1788336148 | 35.56° C | 17% | 1022.1 hPa | - | - | - | - |
| 1788335153 | 33.33° C | 18% | 1022 hPa | - | - | - | - |
| 1788334158 | 32.22° C | 18% | 1022 hPa | - | - | - | - |
| 1788333163 | 29.44° C | 19% | 1022.1 hPa | - | - | - | - |
| 1788332168 | 26.11° C | 21% | 1022 hPa | - | - | - | - |
| 1788323213 | 11.11° C | 33% | 1021.8 hPa | - | - | - | - |
| 1788292367 | 17.22° C | 35% | 1021.2 hPa | - | - | - | - |
| 1788265501 | 32.22° C | 27% | 1020.2 hPa | - | - | - | - |
| 1788250575 | 38.33° C | 19% | 1020.5 hPa | - | - | - | - |
| 1788244605 | 32.22° C | 20% | 1020.1 hPa | - | - | - | - |
| 1788240625 | 22.78° C | 24% | 1019.6 hPa | - | - | - | - |
| 1788237640 | 13.33° C | 34% | 1019.4 hPa | - | - | - | - |
| 1788214754 | 18.33° C | 34% | 1018.7 hPa | - | - | - | - |
| 1788211769 | 18.89° C | 34% | 1018.2 hPa | - | - | - | - |
* Rain since midnight (hover to see other rain measurements)
** Current wind speed in m/s (hover to see current wind gust speed)